createdAt,value
2023-02-26T00:00:25.131Z,1.96
2023-02-26T00:05:27.104Z,1.94
2023-02-26T00:10:29.485Z,1.91
2023-02-26T00:15:31.947Z,1.85
2023-02-26T00:20:36.962Z,1.82
2023-02-26T00:25:39.019Z,1.80
2023-02-26T00:30:41.519Z,1.84
2023-02-26T00:35:44.858Z,1.81
2023-02-26T00:40:54.173Z,1.80
2023-02-26T00:46:03.523Z,1.76
2023-02-26T00:51:44.693Z,1.71
2023-02-26T00:56:49.624Z,1.66
2023-02-26T01:01:53.791Z,1.65
2023-02-26T01:06:57.835Z,1.65
2023-02-26T01:12:05.437Z,1.67
2023-02-26T01:17:25.525Z,1.75
2023-02-26T01:22:52.867Z,1.71
2023-02-26T01:27:57.882Z,1.70
2023-02-26T01:33:13.625Z,1.74
2023-02-26T01:38:53.529Z,1.77
2023-02-26T01:44:24.877Z,1.70
2023-02-26T01:49:28.538Z,1.66
2023-02-26T01:54:39.968Z,1.67
2023-02-26T01:59:45.425Z,1.68
2023-02-26T02:04:49.417Z,1.64
2023-02-26T02:09:52.146Z,1.65
2023-02-26T02:15:37.697Z,1.63
2023-02-26T02:20:52.022Z,1.60
2023-02-26T02:26:20.504Z,1.60
2023-02-26T02:31:31.934Z,1.62
2023-02-26T02:36:47.697Z,1.57
2023-02-26T02:41:59.490Z,1.56
2023-02-26T02:47:06.275Z,1.57
2023-02-26T02:52:28.722Z,1.59
2023-02-26T02:57:42.317Z,1.56
2023-02-26T03:03:28.030Z,1.55
2023-02-26T03:08:54.206Z,1.46
2023-02-26T03:13:57.819Z,1.34
2023-02-26T03:19:06.850Z,1.31
2023-02-26T03:24:37.715Z,1.34
2023-02-26T03:30:06.176Z,1.35
2023-02-26T03:35:16.911Z,1.42
2023-02-26T03:40:30.408Z,1.40
2023-02-26T03:45:38.782Z,1.44
2023-02-26T03:50:46.676Z,1.47
2023-02-26T03:56:18.382Z,1.48
2023-02-26T04:01:55.182Z,1.48
2023-02-26T04:06:58.889Z,1.40
2023-02-26T04:12:01.613Z,1.33
2023-02-26T04:17:05.621Z,1.16
2023-02-26T04:22:10.209Z,1.05
2023-02-26T04:27:13.792Z,0.97
2023-02-26T04:32:39.815Z,0.93
2023-02-26T04:37:43.339Z,0.97
2023-02-26T04:42:47.645Z,1.04
2023-02-26T04:47:59.990Z,1.07
2023-02-26T04:53:08.040Z,1.15
2023-02-26T04:58:12.132Z,1.17
2023-02-26T05:03:17.911Z,1.18
2023-02-26T05:08:20.293Z,1.20
2023-02-26T05:13:22.948Z,1.16
2023-02-26T05:18:27.262Z,1.18
2023-02-26T05:23:30.857Z,1.24
2023-02-26T05:28:36.829Z,1.23
2023-02-26T05:33:38.852Z,1.24
2023-02-26T05:38:43.333Z,1.24
2023-02-26T05:43:47.857Z,1.17
2023-02-26T05:48:52.304Z,1.20
2023-02-26T05:53:54.911Z,1.25
2023-02-26T05:58:57.599Z,1.29
2023-02-26T06:04:01.189Z,1.34
2023-02-26T06:09:06.596Z,1.33
2023-02-26T06:14:11.662Z,1.34
2023-02-26T06:19:14.360Z,1.36
2023-02-26T06:24:18.262Z,1.42
2023-02-26T06:29:21.969Z,1.45
2023-02-26T06:34:24.114Z,1.47
2023-02-26T06:39:31.775Z,1.55
2023-02-26T06:44:35.449Z,1.66
2023-02-26T06:49:38.771Z,1.74
2023-02-26T06:54:43.806Z,1.87
2023-02-26T06:59:47.908Z,1.98
2023-02-26T07:04:51.586Z,2.01
2023-02-26T07:09:53.756Z,2.10
2023-02-26T07:15:01.820Z,2.18
2023-02-26T07:20:11.467Z,2.17
2023-02-26T07:25:14.354Z,2.24
2023-02-26T07:30:20.020Z,2.35
2023-02-26T07:35:22.564Z,2.54
2023-02-26T07:40:27.517Z,2.58
2023-02-26T07:45:31.765Z,2.59
2023-02-26T07:50:33.905Z,2.58
2023-02-26T07:55:36.657Z,2.66
2023-02-26T08:00:39.824Z,2.82
2023-02-26T08:05:41.830Z,2.86
2023-02-26T08:10:44.945Z,2.76
2023-02-26T08:15:48.593Z,2.82
2023-02-26T08:21:13.781Z,2.83
2023-02-26T08:26:16.542Z,2.83
2023-02-26T08:31:19.142Z,2.77
2023-02-26T08:36:25.052Z,2.70
2023-02-26T08:41:36.836Z,2.61
2023-02-26T08:46:39.563Z,2.62
2023-02-26T08:51:42.283Z,2.94
2023-02-26T08:56:44.417Z,3.13
2023-02-26T09:01:47.221Z,3.24
2023-02-26T09:06:52.633Z,3.42
2023-02-26T09:11:54.826Z,3.49
2023-02-26T09:16:57.005Z,3.55
2023-02-26T09:21:59.898Z,3.71
2023-02-26T09:27:03.703Z,3.74
2023-02-26T09:32:08.526Z,3.70
2023-02-26T09:37:10.910Z,3.57
2023-02-26T09:42:32.061Z,3.78
2023-02-26T09:47:41.901Z,4.16
2023-02-26T09:52:54.181Z,4.27
2023-02-26T09:58:00.955Z,4.12
2023-02-26T10:03:30.044Z,3.89
2023-02-26T10:08:45.566Z,3.81
2023-02-26T10:14:31.293Z,3.70
2023-02-26T10:19:40.864Z,3.76
2023-02-26T10:24:49.306Z,3.55
2023-02-26T10:30:08.082Z,3.32
2023-02-26T10:35:19.491Z,3.41
2023-02-26T10:41:14.365Z,3.54
2023-02-26T10:46:42.899Z,3.40
2023-02-26T10:51:47.214Z,3.24
2023-02-26T10:56:52.647Z,3.07
2023-02-26T11:01:55.633Z,2.89
2023-02-26T11:07:02.413Z,2.74
2023-02-26T11:12:18.126Z,2.69
2023-02-26T11:17:27.876Z,2.81
2023-02-26T11:22:34.350Z,2.97
2023-02-26T11:27:38.728Z,3.17
2023-02-26T11:32:41.883Z,3.46
2023-02-26T11:37:49.977Z,3.57
2023-02-26T11:43:08.880Z,3.72
2023-02-26T11:48:21.305Z,3.78
2023-02-26T11:53:42.103Z,3.86
2023-02-26T11:58:47.556Z,3.93
2023-02-26T12:03:51.412Z,4.05
2023-02-26T12:09:00.658Z,4.16
2023-02-26T12:14:26.160Z,4.08
2023-02-26T12:19:54.138Z,3.92
2023-02-26T12:25:59.457Z,3.85
2023-02-26T12:31:56.922Z,3.99
2023-02-26T12:37:32.880Z,3.94
2023-02-26T12:43:05.156Z,3.75
2023-02-26T12:48:35.945Z,3.50
2023-02-26T12:54:04.878Z,3.31
2023-02-26T12:59:44.748Z,3.17
2023-02-26T13:05:15.435Z,3.03
2023-02-26T13:10:35.531Z,3.03
2023-02-26T13:16:16.000Z,3.00
2023-02-26T13:21:18.933Z,2.95
2023-02-26T13:26:26.820Z,3.01
2023-02-26T13:31:45.463Z,3.08
2023-02-26T13:36:53.406Z,3.19
2023-02-26T13:42:16.913Z,3.21
2023-02-26T13:47:46.428Z,3.19
2023-02-26T13:53:21.070Z,2.96
2023-02-26T13:58:24.050Z,2.82
2023-02-26T14:03:32.831Z,2.77
2023-02-26T14:08:57.937Z,2.83
2023-02-26T14:14:26.651Z,2.81
2023-02-26T14:19:33.549Z,2.84
2023-02-26T14:24:44.531Z,2.84
2023-02-26T14:30:10.531Z,2.74
2023-02-26T14:35:43.762Z,2.68
2023-02-26T14:40:59.350Z,2.51
2023-02-26T14:46:05.051Z,2.42
2023-02-26T14:51:54.955Z,2.32
2023-02-26T14:57:29.032Z,2.26
2023-02-26T15:02:43.348Z,2.26
2023-02-26T15:08:16.982Z,2.25
2023-02-26T15:13:44.286Z,2.22
2023-02-26T15:19:10.268Z,2.19
2023-02-26T15:24:18.555Z,2.16
2023-02-26T15:29:30.297Z,2.16
2023-02-26T15:34:34.305Z,2.18
2023-02-26T15:39:36.378Z,2.17
2023-02-26T15:44:47.942Z,2.15
2023-02-26T15:49:59.014Z,2.16
2023-02-26T15:55:07.603Z,2.15
2023-02-26T16:00:25.977Z,2.12
2023-02-26T16:05:29.598Z,2.14
2023-02-26T16:10:49.688Z,2.14
2023-02-26T16:15:52.319Z,2.19
2023-02-26T16:21:01.280Z,2.19
2023-02-26T16:26:09.798Z,2.20
2023-02-26T16:31:49.227Z,2.17
2023-02-26T16:36:55.742Z,2.14
2023-02-26T16:42:14.338Z,2.10
2023-02-26T16:47:18.592Z,2.04
2023-02-26T16:52:25.773Z,2.07
2023-02-26T16:57:36.670Z,2.03
2023-02-26T17:02:39.216Z,2.07
2023-02-26T17:07:56.522Z,2.08
2023-02-26T17:13:27.923Z,2.01
2023-02-26T17:18:31.739Z,1.99
2023-02-26T17:23:37.927Z,1.93
2023-02-26T17:28:42.877Z,1.90
2023-02-26T17:33:45.373Z,2.00
2023-02-26T17:38:51.326Z,2.04
2023-02-26T17:43:55.288Z,2.06
2023-02-26T17:48:59.263Z,2.14
2023-02-26T17:54:01.577Z,2.20
2023-02-26T17:59:09.808Z,2.16
2023-02-26T18:04:14.312Z,2.15
2023-02-26T18:09:16.887Z,2.28
2023-02-26T18:14:22.444Z,2.27
2023-02-26T18:19:24.783Z,2.25
2023-02-26T18:24:32.348Z,2.25
2023-02-26T18:29:40.099Z,2.22
2023-02-26T18:34:51.919Z,2.22
2023-02-26T18:39:57.796Z,2.21
2023-02-26T18:45:00.513Z,2.25
2023-02-26T18:50:06.145Z,2.30
2023-02-26T18:55:14.923Z,2.30
2023-02-26T19:00:18.932Z,2.26
2023-02-26T19:05:24.610Z,2.23
2023-02-26T19:10:31.743Z,2.22
2023-02-26T19:15:34.856Z,2.21
2023-02-26T19:20:37.864Z,2.19
2023-02-26T19:25:42.590Z,2.19
2023-02-26T19:30:46.072Z,2.18
2023-02-26T19:35:48.503Z,2.23
2023-02-26T19:40:51.262Z,2.22
2023-02-26T19:45:56.755Z,2.21
2023-02-26T19:50:59.826Z,2.23
2023-02-26T19:56:04.998Z,2.25
2023-02-26T20:01:07.659Z,2.16
2023-02-26T20:06:12.811Z,2.10
2023-02-26T20:11:15.410Z,2.07
2023-02-26T20:16:17.583Z,2.12
2023-02-26T20:21:22.308Z,2.12
2023-02-26T20:26:27.804Z,2.09
2023-02-26T20:31:31.488Z,2.01
2023-02-26T20:37:40.579Z,1.93
2023-02-26T20:42:44.526Z,1.86
2023-02-26T20:47:46.606Z,1.81
2023-02-26T20:52:51.540Z,1.79
2023-02-26T20:57:55.180Z,1.77
2023-02-26T21:02:58.340Z,1.73
2023-02-26T21:08:04.300Z,1.76
2023-02-26T21:13:08.546Z,1.74
2023-02-26T21:18:11.214Z,1.73
2023-02-26T21:23:14.263Z,1.74
2023-02-26T21:28:16.515Z,1.74
2023-02-26T21:33:19.995Z,1.73
2023-02-26T21:38:22.221Z,1.71
2023-02-26T21:43:26.061Z,1.65
2023-02-26T21:48:28.228Z,1.60
2023-02-26T21:53:30.945Z,1.58
2023-02-26T21:58:33.342Z,1.57
2023-02-26T22:03:36.515Z,1.56
2023-02-26T22:08:39.028Z,1.59
2023-02-26T22:13:51.542Z,1.58
2023-02-26T22:18:53.525Z,1.60
2023-02-26T22:23:55.880Z,1.61
2023-02-26T22:29:00.779Z,1.62
2023-02-26T22:34:02.877Z,1.63
2023-02-26T22:39:06.527Z,1.66
2023-02-26T22:44:08.755Z,1.63
2023-02-26T22:49:11.493Z,1.58
2023-02-26T22:54:13.772Z,1.56
2023-02-26T22:59:16.510Z,1.54
2023-02-26T23:04:19.830Z,1.52
2023-02-26T23:09:24.710Z,1.48
2023-02-26T23:14:27.358Z,1.44
2023-02-26T23:19:29.769Z,1.41
2023-02-26T23:24:32.423Z,1.38
2023-02-26T23:29:34.975Z,1.35
2023-02-26T23:34:37.346Z,1.28
2023-02-26T23:39:39.407Z,1.19
2023-02-26T23:44:42.302Z,1.09
2023-02-26T23:49:44.287Z,1.01
2023-02-26T23:54:46.178Z,0.93
2023-02-26T23:59:48.111Z,0.87
